Time;durP1;ratioP1;P1;durP2;ratioP2;P2;SDS_P1;SDS_P2;PMS_P1;PMS_P2;Temp;Humidity;BMP_temperature;BMP_pressure;BME280_temperature;BME280_humidity;BME280_pressure;Samples;Min_cycle;Max_cycle;Signal;HPM_P1;HPM_P2
2022/08/25 07:16:57;;;;;;;7.92;3.98;;;;;;;;;;1888701;76;22769;-66
2022/08/25 07:19:24;;;;;;;9.70;4.33;;;;;;;;;;1865359;77;21041;-66
2022/08/25 07:21:52;;;;;;;13.83;4.60;;;;;;;;;;1865358;77;21011;-66
2022/08/25 07:26:19;;;;;;;11.28;4.47;;;;;;;;;;1802242;79;22282;-69
2022/08/25 07:28:46;;;;;;;7.58;4.30;;;;;;;;;;1761944;81;20992;-70
2022/08/25 07:31:14;;;;;;;12.58;3.83;;;;;;;;;;1762064;81;21507;-68
2022/08/25 07:37:06;;;;;;;9.50;3.40;;;;;;;;;;1760400;81;21599;-68
2022/08/25 07:39:48;;;;;;;12.20;3.98;;;;;;;;;;1760778;81;21562;-69
2022/08/25 07:42:18;;;;;;;11.28;4.00;;;;;;;;;;1762597;81;21006;-69
2022/08/25 07:44:45;;;;;;;20.05;4.28;;;;;;;;;;1762482;81;21522;-69
2022/08/25 07:47:14;;;;;;;14.20;3.75;;;;;;;;;;1762238;81;21036;-68
2022/08/25 07:49:41;;;;;;;8.70;3.80;;;;;;;;;;1762523;81;21003;-69
2022/08/25 07:52:08;;;;;;;10.63;3.90;;;;;;;;;;1762601;81;21559;-69
2022/08/25 07:54:36;;;;;;;11.90;4.55;;;;;;;;;;1762662;81;21027;-69
2022/08/25 07:59:29;;;;;;;8.10;3.30;;;;;;;;;;1841571;76;22672;-67
2022/08/25 08:01:56;;;;;;;11.65;3.45;;;;;;;;;;1773822;80;21593;-68
2022/08/25 08:04:23;;;;;;;11.55;4.17;;;;;;;;;;1807983;78;21077;-68
2022/08/25 08:13:41;;;;;;;13.60;3.92;;;;;;;30.19;40.82;100825.16;1788208;79;22274;-69
2022/08/25 08:16:10;;;;;;;13.43;3.35;;;;;;;30.19;40.82;100825.16;1739975;81;21518;-69
2022/08/25 08:18:41;;;;;;;10.75;3.70;;;;;;;30.19;40.82;100825.16;1722566;81;21042;-69
2022/08/25 10:01:57;;;;;;;18.82;3.55;;;;;;;31.54;39.01;100720.41;1813616;79;23460;-69
2022/08/25 10:04:31;;;;;;;8.43;2.10;;;;;;;31.54;38.42;100723.08;1786861;80;21686;-68
2022/08/25 10:07:22;;;;;;;8.23;2.20;;;;;;;31.44;37.02;100714.14;1787604;80;21566;-68
2022/08/25 10:10:06;;;;;;;6.58;2.00;;;;;;;31.43;38.08;100715.14;1787558;80;21070;-68
2022/08/25 10:12:40;;;;;;;13.30;2.42;;;;;;;31.45;38.09;100710.96;1785996;80;21027;-69
2022/08/25 10:15:25;;;;;;;7.87;2.40;;;;;;;31.50;36.59;100705.36;1787593;80;21024;-69
2022/08/25 10:17:53;;;;;;;7.35;2.17;;;;;;;31.45;37.12;100722.94;1787915;80;21010;-69
2022/08/25 10:20:27;;;;;;;8.03;2.10;;;;;;;31.43;37.27;100709.83;1787451;80;21023;-69
2022/08/25 10:23:11;;;;;;;6.67;2.20;;;;;;;31.47;36.77;100714.24;1787884;80;20995;-69
2022/08/25 10:25:43;;;;;;;13.05;2.42;;;;;;;31.50;37.42;100705.36;1787573;80;21039;-68
2022/08/25 10:28:25;;;;;;;6.87;2.58;;;;;;;31.64;38.38;100705.40;1787825;80;21042;-69
2022/08/25 10:31:00;;;;;;;7.10;2.35;;;;;;;31.71;38.19;100693.75;1787528;80;21031;-68
2022/08/25 10:34:08;;;;;;;6.90;2.47;;;;;;;31.60;37.58;100696.18;1787777;80;20999;-68
2022/08/25 11:18:20;;;;;;;13.43;3.00;;;;;;;31.89;38.92;100685.66;1830669;77;22971;-68
2022/08/25 11:21:20;;;;;;;16.20;3.00;;;;;;;32.19;38.19;100674.64;1791161;79;21074;-69
2022/08/25 11:53:40;;;;;;;12.43;3.22;;;;;;;32.21;39.66;100636.63;1836074;77;22726;-67
2022/08/25 11:56:33;;;;;;;13.05;3.30;;;;;;;32.49;38.72;100628.38;1803536;78;21017;-68
2022/08/25 11:59:01;;;;;;;22.52;3.80;;;;;;;32.66;38.81;100626.90;1788495;79;21091;-67
2022/08/25 12:01:49;;;;;;;10.05;2.92;;;;;;;32.78;38.45;100640.92;1784714;79;22201;-68
2022/08/25 12:04:40;;;;;;;15.05;3.65;;;;;;;32.96;37.91;100637.05;1738732;82;21555;-67
2022/08/25 12:07:18;;;;;;;7.25;3.55;;;;;;;33.01;38.49;100635.91;1739893;82;21055;-68
2022/08/25 12:09:54;;;;;;;9.70;3.42;;;;;;;32.90;38.98;100632.04;1727877;82;21503;-67
2022/08/25 12:12:44;;;;;;;11.28;3.17;;;;;;;32.90;39.67;100633.89;1747137;82;21020;-67
2022/08/25 12:15:32;;;;;;;17.65;3.90;;;;;;;33.03;39.31;100626.34;1724065;82;21070;-67
2022/08/25 12:18:20;;;;;;;8.13;3.50;;;;;;;33.10;37.71;100629.83;1786042;78;21041;-67
2022/08/25 12:20:59;;;;;;;9.45;4.12;;;;;;;33.16;39.04;100628.98;1722103;82;21515;-67
2022/08/25 12:23:43;;;;;;;12.23;3.60;;;;;;;33.17;38.66;100621.27;1705883;82;21444;-67
2022/08/25 12:26:51;;;;;;;10.55;3.45;;;;;;;33.24;37.96;100622.05;1715279;82;21040;-68
2022/08/25 12:29:35;;;;;;;6.20;3.37;;;;;;;33.19;38.28;100606.38;1717114;82;21070;-67
2022/08/25 12:32:14;;;;;;;9.80;3.80;;;;;;;32.92;39.63;100603.84;1736205;81;21044;-67
2022/08/25 12:35:06;;;;;;;10.68;3.22;;;;;;;33.06;40.24;100612.59;1731735;82;21045;-67
2022/08/25 12:37:34;;;;;;;7.55;3.00;;;;;;;32.96;39.87;100601.57;1800677;79;21106;-67
2022/08/25 12:40:05;;;;;;;13.83;3.25;;;;;;;32.56;38.80;100596.41;1723488;82;21491;-66
2022/08/25 12:42:44;;;;;;;8.63;2.92;;;;;;;32.64;100.00;114090.72;1705860;82;21067;-67
2022/08/25 14:09:21;;;;;;;8.33;3.20;;;;;;;;;;1801420;79;22745;-68
2022/08/25 15:05:55;;;;;;;13.90;2.90;;;;;;;;;;1800885;79;23004;-68
2022/08/25 15:11:07;;;;;;;8.50;3.02;;;;;;;;;;1761476;81;21557;-68
2022/08/25 15:13:34;;;;;;;10.05;3.67;;;;;;;;;;1762040;81;21070;-68
2022/08/25 15:16:02;;;;;;;10.32;3.08;;;;;;;;;;1762278;81;21036;-68
2022/08/25 15:18:29;;;;;;;8.78;3.17;;;;;;;;;;1762733;81;21082;-68
2022/08/25 15:20:56;;;;;;;12.95;3.47;;;;;;;;;;1762443;81;21027;-68
2022/08/25 15:23:22;;;;;;;14.60;3.80;;;;;;;;;;1762458;81;21127;-68
2022/08/25 15:25:49;;;;;;;11.90;3.33;;;;;;;;;;1762266;81;21027;-68
2022/08/25 15:28:18;;;;;;;9.88;3.35;;;;;;;;;;1762238;81;21055;-68
2022/08/25 15:30:45;;;;;;;10.55;3.35;;;;;;;;;;1762314;81;21478;-68
2022/08/25 15:33:13;;;;;;;10.90;3.17;;;;;;;;;;1762056;81;21130;-68
2022/08/25 15:35:41;;;;;;;7.85;3.30;;;;;;;;;;1762243;81;21067;-68
2022/08/25 15:38:08;;;;;;;13.95;2.83;;;;;;;;;;1761942;81;21593;-68
2022/08/25 15:40:37;;;;;;;13.22;3.40;;;;;;;;;;1762618;81;21027;-69
2022/08/25 15:43:04;;;;;;;11.35;3.30;;;;;;;;;;1762381;81;21059;-68
2022/08/25 15:45:34;;;;;;;15.05;3.80;;;;;;;;;;1762649;81;21039;-68
2022/08/25 15:48:01;;;;;;;10.30;3.37;;;;;;;;;;1762224;81;21028;-68
2022/08/25 15:50:27;;;;;;;12.93;3.65;;;;;;;;;;1762340;81;21031;-68
2022/08/25 15:52:55;;;;;;;6.35;2.87;;;;;;;;;;1762548;80;21160;-68
2022/08/25 15:55:22;;;;;;;10.53;3.05;;;;;;;;;;1762437;81;21055;-68
2022/08/25 15:57:49;;;;;;;9.30;3.15;;;;;;;;;;1762634;81;21040;-68
2022/08/25 16:00:16;;;;;;;14.63;3.10;;;;;;;;;;1762120;81;21551;-69
2022/08/25 16:02:44;;;;;;;14.58;3.50;;;;;;;;;;1762315;81;21256;-69
2022/08/25 16:05:11;;;;;;;13.53;3.20;;;;;;;;;;1755606;81;21032;-68
2022/08/25 16:07:38;;;;;;;10.88;3.25;;;;;;;;;;1754681;82;21031;-68
2022/08/25 16:10:06;;;;;;;11.45;3.65;;;;;;;;;;1755245;82;21522;-68
2022/08/25 16:12:34;;;;;;;14.60;3.83;;;;;;;;;;1754971;82;21067;-68
2022/08/25 16:15:02;;;;;;;15.00;3.33;;;;;;;;;;1754914;82;21027;-68
2022/08/25 16:17:29;;;;;;;8.15;3.40;;;;;;;;;;1754457;82;21016;-68
2022/08/25 16:19:57;;;;;;;12.28;3.87;;;;;;;;;;1749621;82;21094;-67
2022/08/25 16:22:24;;;;;;;14.85;4.58;;;;;;;;;;1728492;82;21529;-68
2022/08/25 16:24:50;;;;;;;17.50;4.17;;;;;;;;;;1687168;85;21091;-68
2022/08/25 16:27:18;;;;;;;14.35;4.03;;;;;;;;;;1724344;83;21504;-68
2022/08/25 16:29:46;;;;;;;19.65;4.15;;;;;;;;;;1687314;85;21062;-67
2022/08/25 16:32:13;;;;;;;11.00;3.70;;;;;;;;;;1724248;83;21031;-68
2022/08/25 16:34:41;;;;;;;18.87;4.12;;;;;;;;;;1687430;85;21491;-68
2022/08/25 16:37:08;;;;;;;20.35;3.92;;;;;;;;;;1724249;83;21542;-68
2022/08/25 16:39:35;;;;;;;17.67;3.92;;;;;;;;;;1687063;85;21042;-68
2022/08/25 16:42:04;;;;;;;13.93;4.28;;;;;;;;;;1724427;82;21094;-68
2022/08/25 16:44:33;;;;;;;12.98;3.92;;;;;;;;;;1687229;85;21075;-68
2022/08/25 16:47:00;;;;;;;14.70;4.40;;;;;;;;;;1724477;83;21004;-68
2022/08/25 16:49:26;;;;;;;20.95;4.47;;;;;;;;;;1687169;84;21070;-68
2022/08/25 16:51:53;;;;;;;14.00;4.58;;;;;;;;;;1724421;83;21519;-68
2022/08/25 16:57:06;;;;;;;14.05;4.45;;;;;;;;;;1754136;82;21028;-68
2022/08/25 16:59:33;;;;;;;23.90;4.97;;;;;;;;;;1754349;81;20988;-68
2022/08/25 17:02:00;;;;;;;11.57;4.40;;;;;;;;;;1754084;81;21036;-68
2022/08/25 17:04:27;;;;;;;16.20;4.92;;;;;;;;;;1750870;81;21149;-67
2022/08/25 17:06:54;;;;;;;15.30;5.10;;;;;;;;;;1736078;82;21200;-68
2022/08/25 17:09:21;;;;;;;18.52;5.58;;;;;;;;;;1740088;81;21075;-68
2022/08/25 17:11:48;;;;;;;16.15;4.92;;;;;;;;;;1740362;82;21456;-67
2022/08/25 17:14:18;;;;;;;10.38;4.78;;;;;;;;;;1739935;82;21031;-68
2022/08/25 17:16:47;;;;;;;13.85;4.90;;;;;;;;;;1740397;82;21074;-68
2022/08/25 17:19:17;;;;;;;16.48;5.17;;;;;;;;;;1740132;82;21020;-68
2022/08/25 17:21:44;;;;;;;15.00;5.17;;;;;;;;;;1740039;82;21064;-67
2022/08/25 17:24:12;;;;;;;13.70;5.55;;;;;;;;;;1740099;82;21079;-68
2022/08/25 17:26:40;;;;;;;14.35;5.25;;;;;;;;;;1740088;82;21016;-68
2022/08/25 17:29:08;;;;;;;19.85;6.08;;;;;;;;;;1740246;81;21063;-68
2022/08/25 17:31:38;;;;;;;13.90;5.35;;;;;;;;;;1740263;82;21460;-68
2022/08/25 17:34:09;;;;;;;20.17;6.08;;;;;;;;;;1740197;81;21032;-68
2022/08/25 17:36:36;;;;;;;12.13;5.55;;;;;;;;;;1740338;81;21148;-68
2022/08/25 17:39:04;;;;;;;20.43;6.00;;;;;;;;;;1739988;82;21012;-68
2022/08/25 17:41:32;;;;;;;16.60;5.75;;;;;;;;;;1740237;82;21073;-69
2022/08/25 17:43:59;;;;;;;17.57;5.87;;;;;;;;;;1739845;82;21032;-68
2022/08/25 17:46:26;;;;;;;16.37;5.97;;;;;;;;;;1739989;82;21060;-68
2022/08/25 17:48:53;;;;;;;17.10;6.10;;;;;;;;;;1740265;81;21068;-68
2022/08/25 17:51:20;;;;;;;13.22;6.47;;;;;;;;;;1739955;82;21040;-68
2022/08/25 17:53:48;;;;;;;14.93;6.45;;;;;;;;;;1740181;82;21021;-67
2022/08/25 17:56:17;;;;;;;16.02;6.42;;;;;;;;;;1740196;82;21507;-68
2022/08/25 17:58:46;;;;;;;14.47;6.12;;;;;;;;;;1740304;82;21054;-68
2022/08/25 18:01:18;;;;;;;19.07;6.08;;;;;;;;;;1740080;82;21055;-68
2022/08/25 18:03:45;;;;;;;20.97;6.67;;;;;;;;;;1739799;82;21150;-67
2022/08/25 18:06:14;;;;;;;16.93;6.00;;;;;;;;;;1746617;81;21531;-68
2022/08/25 18:08:43;;;;;;;19.67;6.20;;;;;;;;;;1748658;82;21028;-68
2022/08/25 18:11:10;;;;;;;11.70;5.62;;;;;;;;;;1748339;82;21016;-68
2022/08/25 18:13:37;;;;;;;19.10;6.35;;;;;;;;;;1748016;82;21028;-69
2022/08/25 18:16:05;;;;;;;19.42;5.80;;;;;;;;;;1748583;82;21039;-68
2022/08/25 18:18:32;;;;;;;16.50;6.30;;;;;;;;;;1719330;82;21508;-67
2022/08/25 18:20:59;;;;;;;19.87;5.80;;;;;;;;;;1748568;82;21059;-68
2022/08/25 18:23:27;;;;;;;14.15;5.35;;;;;;;;;;1748849;82;21044;-68
2022/08/25 18:25:54;;;;;;;18.82;5.55;;;;;;;;;;1748136;82;21067;-68
2022/08/25 18:28:22;;;;;;;16.90;5.42;;;;;;;;;;1748575;82;21028;-68
2022/08/25 18:30:49;;;;;;;14.05;4.90;;;;;;;;;;1748660;82;21016;-68
2022/08/25 18:33:17;;;;;;;12.37;4.92;;;;;;;;;;1748719;82;20988;-68
2022/08/25 18:35:45;;;;;;;10.72;4.58;;;;;;;;;;1749198;82;21071;-68
2022/08/25 18:41:01;;;;;;;11.75;4.70;;;;;;;;;;1748689;81;21040;-68
2022/08/25 18:43:28;;;;;;;15.23;4.67;;;;;;;;;;1748972;82;21024;-68
2022/08/25 18:45:55;;;;;;;14.68;4.40;;;;;;;;;;1748675;82;21527;-68
2022/08/25 18:48:22;;;;;;;11.60;4.12;;;;;;;;;;1748926;82;21033;-69
2022/08/25 18:50:52;;;;;;;15.35;4.42;;;;;;;;;;1748792;82;21507;-68
2022/08/25 18:53:20;;;;;;;12.37;4.22;;;;;;;;;;1748856;82;21494;-68
2022/08/25 18:55:47;;;;;;;12.28;4.15;;;;;;;;;;1749220;82;21075;-68
2022/08/25 18:58:17;;;;;;;10.82;4.08;;;;;;;;;;1748654;82;21028;-68
2022/08/25 19:00:44;;;;;;;17.37;4.40;;;;;;;;;;1749217;82;21015;-68
2022/08/25 19:03:14;;;;;;;14.45;4.17;;;;;;;;;;1749124;82;21012;-68
2022/08/25 19:05:44;;;;;;;14.23;4.42;;;;;;;;;;1751252;82;21095;-68
2022/08/25 19:08:13;;;;;;;14.75;4.45;;;;;;;;;;1754507;81;20993;-68
2022/08/25 19:10:42;;;;;;;13.03;4.20;;;;;;;;;;1754649;81;21499;-68
2022/08/25 19:13:10;;;;;;;18.32;4.30;;;;;;;;;;1755166;82;21007;-68
2022/08/25 19:15:40;;;;;;;14.43;3.98;;;;;;;;;;1754485;81;21495;-68
2022/08/25 19:18:07;;;;;;;17.23;4.25;;;;;;;;;;1754895;82;21058;-68
2022/08/25 19:20:34;;;;;;;20.00;3.72;;;;;;;;;;1754488;81;21028;-68
2022/08/25 19:23:02;;;;;;;13.68;4.05;;;;;;;;;;1754385;82;21035;-67
2022/08/25 19:25:30;;;;;;;17.12;4.12;;;;;;;;;;1754811;82;21487;-68
2022/08/25 19:27:58;;;;;;;17.30;4.12;;;;;;;;;;1754507;81;21035;-68
2022/08/25 19:30:27;;;;;;;14.18;4.60;;;;;;;;;;1754723;82;21047;-68
2022/08/25 19:32:54;;;;;;;19.85;4.47;;;;;;;;;;1754534;81;21063;-68
2022/08/25 19:35:28;;;;;;;12.80;4.00;;;;;;;;;;1754520;81;21043;-68
2022/08/25 19:37:55;;;;;;;12.20;4.33;;;;;;;;;;1754995;82;21018;-68
2022/08/25 19:40:22;;;;;;;13.62;4.00;;;;;;;;;;1754516;81;21024;-67
2022/08/25 19:42:50;;;;;;;11.75;4.35;;;;;;;;;;1754763;80;21027;-68
2022/08/25 19:45:19;;;;;;;14.38;4.20;;;;;;;;;;1754404;81;21039;-68
2022/08/25 19:47:46;;;;;;;16.93;4.90;;;;;;;;;;1754427;82;21129;-68
2022/08/25 19:50:14;;;;;;;14.58;4.37;;;;;;;;;;1754747;81;21032;-68
2022/08/25 19:52:41;;;;;;;20.50;4.95;;;;;;;;;;1754671;82;21543;-67
2022/08/25 19:55:08;;;;;;;15.28;4.60;;;;;;;;;;1754903;81;21035;-68
2022/08/25 19:57:36;;;;;;;13.18;4.42;;;;;;;;;;1754588;81;21067;-67
2022/08/25 20:00:08;;;;;;;16.67;4.30;;;;;;;;;;1754648;82;21071;-67
2022/08/25 20:02:39;;;;;;;14.30;4.30;;;;;;;;;;1754544;81;21547;-67
2022/08/25 20:05:06;;;;;;;18.92;4.72;;;;;;;;;;1754426;81;21102;-67
2022/08/25 20:07:34;;;;;;;15.70;5.10;;;;;;;;;;1754593;82;20984;-68
2022/08/25 20:10:01;;;;;;;17.70;4.83;;;;;;;;;;1754666;81;21020;-68
2022/08/25 20:12:28;;;;;;;15.18;4.72;;;;;;;;;;1727156;82;20999;-68
2022/08/25 20:14:55;;;;;;;15.35;4.40;;;;;;;;;;1754563;82;21532;-67
2022/08/25 20:17:23;;;;;;;15.15;4.35;;;;;;;;;;1754698;82;21019;-69
2022/08/25 20:19:51;;;;;;;16.37;4.42;;;;;;;;;;1754562;82;21063;-68
2022/08/25 20:22:18;;;;;;;13.28;4.25;;;;;;;;;;1754792;82;20988;-68
2022/08/25 20:24:53;;;;;;;12.25;4.30;;;;;;;;;;1754602;82;21055;-69
2022/08/25 20:27:19;;;;;;;10.98;4.20;;;;;;;;;;1753934;82;21074;-69
2022/08/25 20:29:47;;;;;;;22.73;4.58;;;;;;;;;;1754940;81;21796;-69
2022/08/25 20:32:15;;;;;;;9.33;4.33;;;;;;;;;;1754670;81;21019;-68
2022/08/25 20:34:41;;;;;;;17.65;4.45;;;;;;;;;;1754892;81;21063;-70
2022/08/25 20:37:08;;;;;;;15.15;4.35;;;;;;;;;;1754657;81;21020;-69
2022/08/25 20:39:35;;;;;;;10.00;3.90;;;;;;;;;;1754879;81;21019;-69
2022/08/25 20:42:03;;;;;;;15.85;4.40;;;;;;;;;;1754659;81;21110;-69
2022/08/25 20:44:36;;;;;;;10.72;4.42;;;;;;;;;;1754838;82;21026;-68
2022/08/25 20:47:06;;;;;;;13.45;4.20;;;;;;;;;;1754387;82;21128;-68
2022/08/25 20:49:32;;;;;;;17.75;4.25;;;;;;;;;;1754918;82;20996;-67
2022/08/25 20:52:02;;;;;;;14.63;4.12;;;;;;;;;;1754837;82;21025;-68
2022/08/25 20:54:30;;;;;;;12.80;4.22;;;;;;;;;;1754616;82;21034;-68
2022/08/25 20:56:57;;;;;;;18.32;4.45;;;;;;;;;;1754864;81;21020;-68
2022/08/25 20:59:25;;;;;;;13.88;4.53;;;;;;;;;;1754629;82;21063;-68
2022/08/25 21:01:55;;;;;;;12.18;4.15;;;;;;;;;;1754636;82;21015;-68
2022/08/25 21:04:23;;;;;;;16.55;4.17;;;;;;;;;;1754569;82;21103;-68
2022/08/25 21:06:50;;;;;;;17.37;4.45;;;;;;;;;;1744571;81;21052;-68
2022/08/25 21:09:21;;;;;;;14.55;4.33;;;;;;;;;;1740569;82;21009;-68
2022/08/25 21:11:51;;;;;;;17.82;4.65;;;;;;;;;;1731204;82;20973;-67
2022/08/25 21:14:19;;;;;;;13.32;4.30;;;;;;;;;;1719318;82;21041;-67
2022/08/25 21:16:46;;;;;;;14.83;4.20;;;;;;;;;;1711181;83;21055;-67
2022/08/25 21:19:15;;;;;;;15.30;4.28;;;;;;;;;;1711100;83;21000;-68
2022/08/25 21:21:43;;;;;;;14.75;4.78;;;;;;;;;;1711240;83;21566;-68
2022/08/25 21:24:10;;;;;;;14.87;4.37;;;;;;;;;;1715503;82;21028;-67
2022/08/25 21:26:38;;;;;;;21.17;4.17;;;;;;;;;;1710935;83;21059;-67
2022/08/25 21:29:07;;;;;;;15.90;4.15;;;;;;;;;;1711391;84;21063;-61
2022/08/25 21:31:35;;;;;;;21.40;4.40;;;;;;;;;;1710822;84;21044;-60
2022/08/25 21:34:02;;;;;;;17.75;4.08;;;;;;;;;;1710929;83;21039;-60
2022/08/25 21:36:30;;;;;;;14.98;4.47;;;;;;;;;;1711102;83;21494;-60
2022/08/25 21:38:59;;;;;;;15.63;4.10;;;;;;;;;;1711031;82;21516;-60
2022/08/25 21:41:29;;;;;;;17.67;4.03;;;;;;;;;;1711251;84;21090;-60
2022/08/25 21:43:57;;;;;;;20.23;4.53;;;;;;;;;;1711123;84;21039;-60
2022/08/25 21:46:27;;;;;;;18.27;4.05;;;;;;;;;;1711231;82;21000;-60
2022/08/25 21:48:58;;;;;;;13.70;4.50;;;;;;;;;;1711060;83;21022;-60
2022/08/25 21:51:28;;;;;;;27.05;4.72;;;;;;;;;;1711457;84;22166;-60
2022/08/25 21:54:07;;;;;;;14.73;4.35;;;;;;;;;;1711207;84;21055;-60
2022/08/25 21:56:24;;;;;;;16.52;4.20;;;;;;;;;;1709585;84;21024;-60
2022/08/25 21:58:50;;;;;;;24.27;4.70;;;;;;;;;;1711216;82;21024;-60
2022/08/25 22:01:18;;;;;;;22.00;4.65;;;;;;;;;;1710992;83;21012;-60
2022/08/25 22:03:46;;;;;;;21.48;4.53;;;;;;;;;;1710967;82;21578;-60
2022/08/25 22:06:14;;;;;;;17.90;4.45;;;;;;;;;;1715509;83;21062;-60
2022/08/25 22:08:41;;;;;;;15.72;4.28;;;;;;;;;;1724572;83;21044;-60
2022/08/25 22:11:09;;;;;;;16.75;4.35;;;;;;;;;;1724763;83;21019;-60
2022/08/25 22:13:38;;;;;;;15.45;4.53;;;;;;;;;;1724633;83;21078;-60
2022/08/25 22:16:05;;;;;;;19.82;4.03;;;;;;;;;;1724820;82;21070;-60
2022/08/25 22:18:32;;;;;;;17.20;4.17;;;;;;;;;;1724416;83;21019;-60
2022/08/25 22:20:59;;;;;;;23.65;4.35;;;;;;;;;;1724756;83;21036;-59
2022/08/25 22:23:26;;;;;;;13.38;4.65;;;;;;;;;;1724533;83;21079;-60
2022/08/25 22:25:54;;;;;;;21.48;4.12;;;;;;;;;;1724491;83;21028;-60
2022/08/25 22:28:21;;;;;;;18.00;4.70;;;;;;;;;;1724900;83;21063;-60
2022/08/25 22:30:48;;;;;;;15.38;4.37;;;;;;;;;;1724533;83;21047;-60
2022/08/25 22:33:16;;;;;;;15.95;4.53;;;;;;;;;;1724738;83;21046;-60
2022/08/25 22:35:43;;;;;;;17.92;4.53;;;;;;;;;;1724652;83;21540;-60
2022/08/25 22:38:10;;;;;;;27.90;5.08;;;;;;;;;;1724639;83;21490;-60
2022/08/25 22:40:37;;;;;;;21.68;4.97;;;;;;;;;;1724651;83;21083;-60
2022/08/25 22:43:07;;;;;;;23.25;4.67;;;;;;;;;;1724557;83;21071;-60
2022/08/25 22:45:35;;;;;;;18.52;4.40;;;;;;;;;;1724680;83;21039;-60
2022/08/25 22:48:04;;;;;;;13.80;4.30;;;;;;;;;;1724673;82;21058;-60
2022/08/25 22:50:33;;;;;;;18.35;4.12;;;;;;;;;;1724876;82;21059;-59
2022/08/25 22:53:00;;;;;;;20.60;4.67;;;;;;;;;;1724435;83;21079;-61
2022/08/25 22:55:27;;;;;;;16.27;4.60;;;;;;;;;;1724093;83;21095;-59
2022/08/25 22:57:54;;;;;;;19.00;4.05;;;;;;;;;;1724551;83;21039;-60
2022/08/25 23:00:21;;;;;;;10.05;3.98;;;;;;;;;;1724570;83;21059;-59
2022/08/25 23:02:51;;;;;;;24.85;4.35;;;;;;;;;;1724760;83;21047;-60
2022/08/25 23:05:17;;;;;;;16.73;4.10;;;;;;;;;;1724384;83;21067;-60
2022/08/25 23:07:44;;;;;;;15.80;4.20;;;;;;;;;;1724457;83;21070;-60
2022/08/25 23:10:11;;;;;;;21.10;4.70;;;;;;;;;;1724452;83;21027;-60
2022/08/25 23:12:39;;;;;;;18.45;4.55;;;;;;;;;;1724601;83;21039;-60
2022/08/25 23:15:09;;;;;;;15.45;4.35;;;;;;;;;;1724766;83;21051;-60
2022/08/25 23:17:36;;;;;;;17.07;4.50;;;;;;;;;;1697969;83;21012;-61
2022/08/25 23:22:07;;;;;;;18.12;4.72;;;;;;;;;;1724753;83;21036;-60
2022/08/25 23:22:33;;;;;;;21.27;4.87;;;;;;;;;;1720845;83;21067;-60
2022/08/25 23:25:00;;;;;;;15.58;4.53;;;;;;;;;;1724508;82;21036;-60
2022/08/25 23:27:27;;;;;;;24.65;4.85;;;;;;;;;;1724801;83;21050;-60
2022/08/25 23:29:54;;;;;;;16.67;4.45;;;;;;;;;;1724645;83;21086;-60
2022/08/25 23:32:21;;;;;;;20.90;4.80;;;;;;;;;;1724647;83;21091;-60
2022/08/25 23:34:48;;;;;;;17.02;4.55;;;;;;;;;;1724795;82;21051;-60
2022/08/25 23:37:15;;;;;;;19.90;5.00;;;;;;;;;;1724936;83;21031;-60
2022/08/25 23:39:44;;;;;;;19.98;4.60;;;;;;;;;;1724683;83;21034;-60
2022/08/25 23:42:11;;;;;;;22.62;5.00;;;;;;;;;;1724835;83;21020;-60
2022/08/25 23:44:43;;;;;;;16.67;4.50;;;;;;;;;;1725252;83;20999;-60
2022/08/25 23:47:10;;;;;;;18.15;4.87;;;;;;;;;;1724654;83;21066;-60
2022/08/25 23:49:38;;;;;;;14.40;4.80;;;;;;;;;;1724907;83;21095;-60
2022/08/25 23:52:05;;;;;;;20.40;5.00;;;;;;;;;;1724732;83;21051;-61
2022/08/25 23:54:32;;;;;;;21.37;5.40;;;;;;;;;;1724909;83;21130;-60
2022/08/25 23:56:59;;;;;;;17.85;5.28;;;;;;;;;;1724667;83;21012;-60
2022/08/25 23:59:26;;;;;;;19.80;4.80;;;;;;;;;;1724703;82;21031;-60
